Marion C. Bouchard — WQZ5582 — position and weather

sailwx.info

Track history (hours):
 
Tides and Currents Weather Stations Pressure Air Temp Water Temp Dewpoint Dewpoint Depression Visibility Wind Speed Wind Dir Waves Ship Positions

Marion C. Bouchard

Owner: BOUCHARD TRANSPORTATION CO INC, Melville, NY. More information available from US FCC via Universal Licensing System and Coast Guard Vessel Documentation Center.

Last reported at 2018-Jan-24 01:30 UTC. Time now 2018-Jan-24 01:45 UTC.
Position N 27°49' W 097°12'.

Length 179 m; draft 7 m.

Type: Towing. MMSI: 357540707.

Date/timePositionNaut miles runAvg speedWind from/ knotsBaromVisibWave heightAir tempDewpointWater temp
2018-Jan-24 01:30N 27°49' W 097°12'5 9.5
2018-Jan-24 01:00N 27°49' W 097°18'5 9.4
2018-Jan-24 00:29N 27°49' W 097°23'3 5.5
2018-Jan-23 23:59N 27°49' W 097°26'3 3.5
2018-Jan-23 23:10N 27°49' W 097°29'0 0.0
2018-Jan-23 22:58N 27°49' W 097°29'0 0.0
2018-Jan-23 21:43N 27°49' W 097°29'3 5.1
2018-Jan-23 21:12N 27°49' W 097°26'0 0.8
2018-Jan-23 20:59N 27°49' W 097°26'0 0.0
2018-Jan-23 20:29N 27°49' W 097°26'0 0.0
2018-Jan-23 19:59N 27°49' W 097°26'0 0.0
2018-Jan-23 19:28N 27°49' W 097°26'0 0.0
2018-Jan-23 19:00N 27°49' W 097°26'0 0.0
2018-Jan-23 18:30N 27°49' W 097°26'0 0.0
2018-Jan-23 18:00N 27°49' W 097°26'0 0.0
2018-Jan-23 17:29N 27°49' W 097°26'0 0.0
2018-Jan-23 16:59N 27°49' W 097°26'0 0.0
2018-Jan-23 16:29N 27°49' W 097°26'0 0.0
2018-Jan-23 15:59N 27°49' W 097°26'0 0.0
2018-Jan-23 15:29N 27°49' W 097°26'0 0.0
2018-Jan-23 15:00N 27°49' W 097°26'0 0.0
2018-Jan-23 14:30N 27°49' W 097°26'0 0.0
2018-Jan-23 14:00N 27°49' W 097°26'0 0.0
2018-Jan-23 13:29N 27°49' W 097°26'0 0.0
2018-Jan-23 12:59N 27°49' W 097°26'0 0.0
2018-Jan-23 12:31N 27°49' W 097°26'0 0.0
2018-Jan-23 12:00N 27°49' W 097°26'0 0.0
2018-Jan-23 11:30N 27°49' W 097°26'0 0.0
2018-Jan-23 10:59N 27°49' W 097°26'0 0.0
2018-Jan-23 10:30N 27°49' W 097°26'0 0.0
2018-Jan-23 09:59N 27°49' W 097°26'0 0.0
2018-Jan-23 09:28N 27°49' W 097°26'0 0.0
2018-Jan-23 09:00N 27°49' W 097°26'0 0.0
2018-Jan-23 08:30N 27°49' W 097°26'0 0.0
2018-Jan-23 07:59N 27°49' W 097°26'0 0.0
2018-Jan-23 07:29N 27°49' W 097°26'0 0.0
2018-Jan-23 07:00N 27°49' W 097°26'0 0.0
2018-Jan-23 06:29N 27°49' W 097°26'0 0.0
2018-Jan-23 05:59N 27°49' W 097°26'0 0.0
2018-Jan-23 05:30N 27°49' W 097°26'0 0.0
2018-Jan-23 04:59N 27°49' W 097°26'0 0.0
2018-Jan-23 04:28N 27°49' W 097°26'0 0.0
2018-Jan-23 04:00N 27°49' W 097°26'0 0.0
2018-Jan-23 03:30N 27°49' W 097°26'0 0.0
2018-Jan-23 02:42N 27°49' W 097°26'0 0.0
2018-Jan-23 02:30N 27°49' W 097°26'0 0.0
2018-Jan-22 23:03N 27°49' W 097°26'1 6.9
2018-Jan-22 22:58N 27°49' W 097°27'1 0.5
2018-Jan-22 21:08N 27°49' W 097°26'8 7.4
2018-Jan-22 20:05N 27°49' W 097°17'1 8.2
2018-Jan-22 19:59N 27°49' W 097°16'4 7.7
2018-Jan-22 19:29N 27°49' W 097°12'3 7.4
2018-Jan-22 19:01N 27°50' W 097°08'3 6.9
2018-Jan-22 18:30N 27°51' W 097°04'3 6.7
2018-Jan-22 18:00N 27°49' W 097°01'1 1.6
2018-Jan-22 17:30N 27°50' W 096°60'1 1.1
2018-Jan-22 16:59N 27°50' W 096°59'1 1.8
2018-Jan-22 16:28N 27°51' W 096°59'0 0.1
2018-Jan-22 15:58N 27°51' W 096°59'0 0.0
2018-Jan-22 15:28N 27°51' W 096°59'0 0.0
2018-Jan-22 14:58N 27°51' W 096°59'0 0.0
2018-Jan-22 14:28N 27°51' W 096°59'0 0.0
2018-Jan-22 13:58N 27°51' W 096°59'0 0.1
2018-Jan-22 13:28N 27°51' W 096°59'0 0.0
2018-Jan-22 12:58N 27°51' W 096°59'0 0.0
2018-Jan-22 12:28N 27°51' W 096°59'0 0.1
2018-Jan-22 11:58N 27°51' W 096°59'0 0.1
2018-Jan-22 11:28N 27°51' W 096°59'0 0.0
2018-Jan-22 10:58N 27°51' W 096°59'0 0.1
2018-Jan-22 10:28N 27°51' W 096°59'0 0.0
2018-Jan-22 09:58N 27°51' W 096°59'0 0.0
2018-Jan-22 09:28N 27°51' W 096°59'0 0.0
2018-Jan-22 08:58N 27°51' W 096°59'0 0.0
2018-Jan-22 08:28N 27°51' W 096°59'0 0.0
2018-Jan-22 07:58N 27°51' W 096°59'0 0.0
2018-Jan-22 07:28N 27°51' W 096°59'0 0.1
2018-Jan-22 07:01N 27°51' W 096°59'0 0.0
2018-Jan-22 06:31N 27°51' W 096°59'0 0.1
2018-Jan-22 06:01N 27°51' W 096°59'0 0.0
2018-Jan-22 05:30N 27°51' W 096°59'0 0.0
2018-Jan-22 05:00N 27°51' W 096°59'0 0.0
2018-Jan-22 04:30N 27°51' W 096°59'0 0.1
2018-Jan-22 04:00N 27°51' W 096°59'0 0.0
2018-Jan-22 03:30N 27°51' W 096°59'0 0.1
2018-Jan-22 03:00N 27°51' W 096°59'0 0.0
2018-Jan-22 02:30N 27°51' W 096°59'0 0.0
2018-Jan-22 02:00N 27°51' W 096°59'0 0.0
2018-Jan-22 01:30N 27°51' W 096°59'0 0.1
2018-Jan-22 01:00N 27°51' W 096°59'0 0.0
2018-Jan-22 00:30N 27°51' W 096°59'0 0.0
2018-Jan-22 00:00N 27°51' W 096°59'0 0.0
2018-Jan-21 23:30N 27°51' W 096°59'0 0.0
2018-Jan-21 23:00N 27°51' W 096°59'0 0.0
2018-Jan-21 22:30N 27°51' W 096°59'0 0.0
2018-Jan-21 22:00N 27°51' W 096°59'0 0.0
2018-Jan-21 21:30N 27°51' W 096°59'0 0.1
2018-Jan-21 21:00N 27°51' W 096°59'0 0.0
2018-Jan-21 20:30N 27°51' W 096°59'0 0.0
2018-Jan-21 20:00N 27°51' W 096°59'0 0.1
2018-Jan-21 19:30N 27°51' W 096°59'0 0.0
2018-Jan-21 19:00N 27°51' W 096°59'0 0.0
2018-Jan-21 18:30N 27°51' W 096°59'0 0.0
2018-Jan-21 18:00N 27°51' W 096°59'0 0.0
2018-Jan-21 17:30N 27°51' W 096°59'0 0.0
2018-Jan-21 17:00N 27°51' W 096°59'0 0.0
2018-Jan-21 16:30N 27°51' W 096°59'0 0.0
2018-Jan-21 16:00N 27°51' W 096°59'0 0.0
2018-Jan-21 15:30N 27°51' W 096°59'0 0.0
2018-Jan-21 14:57N 27°51' W 096°59'0 0.0
2018-Jan-21 14:30N 27°51' W 096°59'0 0.0
2018-Jan-21 14:00N 27°51' W 096°59'0 0.0
2018-Jan-21 13:30N 27°51' W 096°59'0 0.0
2018-Jan-21 13:00N 27°51' W 096°59'0 0.0
2018-Jan-21 12:30N 27°51' W 096°59'0 0.0
2018-Jan-21 12:00N 27°51' W 096°59'0 0.0
2018-Jan-21 11:30N 27°51' W 096°59'0 0.0
2018-Jan-21 11:00N 27°51' W 096°59'0 0.0
2018-Jan-21 10:30N 27°51' W 096°59'0 0.0
2018-Jan-21 10:00N 27°51' W 096°59'0 0.0
2018-Jan-21 09:30N 27°51' W 096°59'0 0.0
2018-Jan-21 09:00N 27°51' W 096°59'0 0.0
2018-Jan-21 08:27N 27°51' W 096°59'0 0.0
2018-Jan-21 08:00N 27°51' W 096°59'0 0.0
2018-Jan-21 07:30N 27°51' W 096°59'0 0.0
2018-Jan-21 07:00N 27°51' W 096°59'0 0.0
2018-Jan-21 06:30N 27°51' W 096°59'0 0.0
2018-Jan-21 06:00N 27°51' W 096°59'0 0.0
2018-Jan-21 05:30N 27°51' W 096°59'0 0.0
2018-Jan-21 05:00N 27°51' W 096°59'0 0.0
2018-Jan-21 04:27N 27°51' W 096°59'0 0.0
2018-Jan-21 04:00N 27°51' W 096°59'0 0.1
2018-Jan-21 03:30N 27°51' W 096°59'0 0.0
2018-Jan-21 03:00N 27°51' W 096°59'0 0.0
2018-Jan-21 02:30N 27°51' W 096°59'0 0.1
2018-Jan-21 01:59N 27°51' W 096°59'2 4.0
2018-Jan-21 01:29N 27°50' W 097°01'3 6.2
2018-Jan-21 01:00N 27°51' W 097°04'3 6.4
2018-Jan-21 00:29N 27°50' W 097°07'4 7.5
2018-Jan-21 00:00N 27°49' W 097°11'4 7.5
2018-Jan-20 23:29N 27°49' W 097°16'4 8.3
2018-Jan-20 22:59N 27°49' W 097°20'  
Track history (hours):
 
Tides and Currents Weather Stations Pressure Air Temp Water Temp Dewpoint Dewpoint Depression Visibility Wind Speed Wind Dir Waves Ship Positions

Marion C. Bouchard

Owner: BOUCHARD TRANSPORTATION CO INC, Melville, NY. More information available from US FCC via Universal Licensing System and Coast Guard Vessel Documentation Center.

Last reported at 2018-Jan-24 01:30 UTC. Time now 2018-Jan-24 01:45 UTC.
Position N 27°49' W 097°12'.

Length 179 m; draft 7 m.

Type: Towing. MMSI: 357540707.

Date/timePositionNaut miles runAvg speedWind from/ knotsBaromVisibWave heightAir tempDewpointWater temp
2018-Jan-24 01:30N 27°49' W 097°12'5 9.5
2018-Jan-24 01:00N 27°49' W 097°18'5 9.4
2018-Jan-24 00:29N 27°49' W 097°23'3 5.5
2018-Jan-23 23:59N 27°49' W 097°26'3 3.5
2018-Jan-23 23:10N 27°49' W 097°29'0 0.0
2018-Jan-23 22:58N 27°49' W 097°29'0 0.0
2018-Jan-23 21:43N 27°49' W 097°29'3 5.1
2018-Jan-23 21:12N 27°49' W 097°26'0 0.8
2018-Jan-23 20:59N 27°49' W 097°26'0 0.0
2018-Jan-23 20:29N 27°49' W 097°26'0 0.0
2018-Jan-23 19:59N 27°49' W 097°26'0 0.0
2018-Jan-23 19:28N 27°49' W 097°26'0 0.0
2018-Jan-23 19:00N 27°49' W 097°26'0 0.0
2018-Jan-23 18:30N 27°49' W 097°26'0 0.0
2018-Jan-23 18:00N 27°49' W 097°26'0 0.0
2018-Jan-23 17:29N 27°49' W 097°26'0 0.0
2018-Jan-23 16:59N 27°49' W 097°26'0 0.0
2018-Jan-23 16:29N 27°49' W 097°26'0 0.0
2018-Jan-23 15:59N 27°49' W 097°26'0 0.0
2018-Jan-23 15:29N 27°49' W 097°26'0 0.0
2018-Jan-23 15:00N 27°49' W 097°26'0 0.0
2018-Jan-23 14:30N 27°49' W 097°26'0 0.0
2018-Jan-23 14:00N 27°49' W 097°26'0 0.0
2018-Jan-23 13:29N 27°49' W 097°26'0 0.0
2018-Jan-23 12:59N 27°49' W 097°26'0 0.0
2018-Jan-23 12:31N 27°49' W 097°26'0 0.0
2018-Jan-23 12:00N 27°49' W 097°26'0 0.0
2018-Jan-23 11:30N 27°49' W 097°26'0 0.0
2018-Jan-23 10:59N 27°49' W 097°26'0 0.0
2018-Jan-23 10:30N 27°49' W 097°26'0 0.0
2018-Jan-23 09:59N 27°49' W 097°26'0 0.0
2018-Jan-23 09:28N 27°49' W 097°26'0 0.0
2018-Jan-23 09:00N 27°49' W 097°26'0 0.0
2018-Jan-23 08:30N 27°49' W 097°26'0 0.0
2018-Jan-23 07:59N 27°49' W 097°26'0 0.0
2018-Jan-23 07:29N 27°49' W 097°26'0 0.0
2018-Jan-23 07:00N 27°49' W 097°26'0 0.0
2018-Jan-23 06:29N 27°49' W 097°26'0 0.0
2018-Jan-23 05:59N 27°49' W 097°26'0 0.0
2018-Jan-23 05:30N 27°49' W 097°26'0 0.0
2018-Jan-23 04:59N 27°49' W 097°26'0 0.0
2018-Jan-23 04:28N 27°49' W 097°26'0 0.0
2018-Jan-23 04:00N 27°49' W 097°26'0 0.0
2018-Jan-23 03:30N 27°49' W 097°26'0 0.0
2018-Jan-23 02:42N 27°49' W 097°26'0 0.0
2018-Jan-23 02:30N 27°49' W 097°26'0 0.0
2018-Jan-22 23:03N 27°49' W 097°26'1 6.9
2018-Jan-22 22:58N 27°49' W 097°27'1 0.5
2018-Jan-22 21:08N 27°49' W 097°26'8 7.4
2018-Jan-22 20:05N 27°49' W 097°17'1 8.2
2018-Jan-22 19:59N 27°49' W 097°16'4 7.7
2018-Jan-22 19:29N 27°49' W 097°12'3 7.4
2018-Jan-22 19:01N 27°50' W 097°08'3 6.9
2018-Jan-22 18:30N 27°51' W 097°04'3 6.7
2018-Jan-22 18:00N 27°49' W 097°01'1 1.6
2018-Jan-22 17:30N 27°50' W 096°60'1 1.1
2018-Jan-22 16:59N 27°50' W 096°59'1 1.8
2018-Jan-22 16:28N 27°51' W 096°59'0 0.1
2018-Jan-22 15:58N 27°51' W 096°59'0 0.0
2018-Jan-22 15:28N 27°51' W 096°59'0 0.0
2018-Jan-22 14:58N 27°51' W 096°59'0 0.0
2018-Jan-22 14:28N 27°51' W 096°59'0 0.0
2018-Jan-22 13:58N 27°51' W 096°59'0 0.1
2018-Jan-22 13:28N 27°51' W 096°59'0 0.0
2018-Jan-22 12:58N 27°51' W 096°59'0 0.0
2018-Jan-22 12:28N 27°51' W 096°59'0 0.1
2018-Jan-22 11:58N 27°51' W 096°59'0 0.1
2018-Jan-22 11:28N 27°51' W 096°59'0 0.0
2018-Jan-22 10:58N 27°51' W 096°59'0 0.1
2018-Jan-22 10:28N 27°51' W 096°59'0 0.0
2018-Jan-22 09:58N 27°51' W 096°59'0 0.0
2018-Jan-22 09:28N 27°51' W 096°59'0 0.0
2018-Jan-22 08:58N 27°51' W 096°59'0 0.0
2018-Jan-22 08:28N 27°51' W 096°59'0 0.0
2018-Jan-22 07:58N 27°51' W 096°59'0 0.0
2018-Jan-22 07:28N 27°51' W 096°59'0 0.1
2018-Jan-22 07:01N 27°51' W 096°59'0 0.0
2018-Jan-22 06:31N 27°51' W 096°59'0 0.1
2018-Jan-22 06:01N 27°51' W 096°59'0 0.0
2018-Jan-22 05:30N 27°51' W 096°59'0 0.0
2018-Jan-22 05:00N 27°51' W 096°59'0 0.0
2018-Jan-22 04:30N 27°51' W 096°59'0 0.1
2018-Jan-22 04:00N 27°51' W 096°59'0 0.0
2018-Jan-22 03:30N 27°51' W 096°59'0 0.1
2018-Jan-22 03:00N 27°51' W 096°59'0 0.0
2018-Jan-22 02:30N 27°51' W 096°59'0 0.0
2018-Jan-22 02:00N 27°51' W 096°59'0 0.0
2018-Jan-22 01:30N 27°51' W 096°59'0 0.1
2018-Jan-22 01:00N 27°51' W 096°59'0 0.0
2018-Jan-22 00:30N 27°51' W 096°59'0 0.0
2018-Jan-22 00:00N 27°51' W 096°59'0 0.0
2018-Jan-21 23:30N 27°51' W 096°59'0 0.0
2018-Jan-21 23:00N 27°51' W 096°59'0 0.0
2018-Jan-21 22:30N 27°51' W 096°59'0 0.0
2018-Jan-21 22:00N 27°51' W 096°59'0 0.0
2018-Jan-21 21:30N 27°51' W 096°59'0 0.1
2018-Jan-21 21:00N 27°51' W 096°59'0 0.0
2018-Jan-21 20:30N 27°51' W 096°59'0 0.0
2018-Jan-21 20:00N 27°51' W 096°59'0 0.1
2018-Jan-21 19:30N 27°51' W 096°59'0 0.0
2018-Jan-21 19:00N 27°51' W 096°59'0 0.0
2018-Jan-21 18:30N 27°51' W 096°59'0 0.0
2018-Jan-21 18:00N 27°51' W 096°59'0 0.0
2018-Jan-21 17:30N 27°51' W 096°59'0 0.0
2018-Jan-21 17:00N 27°51' W 096°59'0 0.0
2018-Jan-21 16:30N 27°51' W 096°59'0 0.0
2018-Jan-21 16:00N 27°51' W 096°59'0 0.0
2018-Jan-21 15:30N 27°51' W 096°59'0 0.0
2018-Jan-21 14:57N 27°51' W 096°59'0 0.0
2018-Jan-21 14:30N 27°51' W 096°59'0 0.0
2018-Jan-21 14:00N 27°51' W 096°59'0 0.0
2018-Jan-21 13:30N 27°51' W 096°59'0 0.0
2018-Jan-21 13:00N 27°51' W 096°59'0 0.0
2018-Jan-21 12:30N 27°51' W 096°59'0 0.0
2018-Jan-21 12:00N 27°51' W 096°59'0 0.0
2018-Jan-21 11:30N 27°51' W 096°59'0 0.0
2018-Jan-21 11:00N 27°51' W 096°59'0 0.0
2018-Jan-21 10:30N 27°51' W 096°59'0 0.0
2018-Jan-21 10:00N 27°51' W 096°59'0 0.0
2018-Jan-21 09:30N 27°51' W 096°59'0 0.0
2018-Jan-21 09:00N 27°51' W 096°59'0 0.0
2018-Jan-21 08:27N 27°51' W 096°59'0 0.0
2018-Jan-21 08:00N 27°51' W 096°59'0 0.0
2018-Jan-21 07:30N 27°51' W 096°59'0 0.0
2018-Jan-21 07:00N 27°51' W 096°59'0 0.0
2018-Jan-21 06:30N 27°51' W 096°59'0 0.0
2018-Jan-21 06:00N 27°51' W 096°59'0 0.0
2018-Jan-21 05:30N 27°51' W 096°59'0 0.0
2018-Jan-21 05:00N 27°51' W 096°59'0 0.0
2018-Jan-21 04:27N 27°51' W 096°59'0 0.0
2018-Jan-21 04:00N 27°51' W 096°59'0 0.1
2018-Jan-21 03:30N 27°51' W 096°59'0 0.0
2018-Jan-21 03:00N 27°51' W 096°59'0 0.0
2018-Jan-21 02:30N 27°51' W 096°59'0 0.1
2018-Jan-21 01:59N 27°51' W 096°59'2 4.0
2018-Jan-21 01:29N 27°50' W 097°01'3 6.2
2018-Jan-21 01:00N 27°51' W 097°04'3 6.4
2018-Jan-21 00:29N 27°50' W 097°07'4 7.5
2018-Jan-21 00:00N 27°49' W 097°11'4 7.5
2018-Jan-20 23:29N 27°49' W 097°16'4 8.3
2018-Jan-20 22:59N 27°49' W 097°20'  

Dump ship's entire track history